Time;durP1;ratioP1;P1;durP2;ratioP2;P2;SDS_P1;SDS_P2;PMS_P1;PMS_P2;Temp;Humidity;BMP_temperature;BMP_pressure;BME280_temperature;BME280_humidity;BME280_pressure;Samples;Min_cycle;Max_cycle;Signal;HPM_P1;HPM_P2
2023/10/15 00:00:57;;;;;;;1.95;0.63;;;18.90;50.40;;;;;;6216640;28;20470;-64
2023/10/15 00:03:58;;;;;;;2.05;0.40;;;18.90;50.60;;;;;;6216767;28;20034;-65
2023/10/15 00:06:59;;;;;;;2.65;0.70;;;18.90;50.70;;;;;;6216583;28;20030;-64
2023/10/15 00:10:00;;;;;;;6.75;0.77;;;18.90;50.70;;;;;;6214598;28;20544;-64
2023/10/15 00:13:01;;;;;;;1.88;0.63;;;18.90;50.60;;;;;;6216492;28;20037;-65
2023/10/15 00:16:02;;;;;;;1.08;0.30;;;19.00;50.20;;;;;;6215697;28;20036;-66
2023/10/15 00:19:12;;;;;;;0.70;0.50;;;19.00;50.70;;;;;;6215999;28;20029;-65
2023/10/15 00:22:13;;;;;;;2.50;0.50;;;19.00;50.70;;;;;;6214976;28;20655;-65
2023/10/15 00:25:16;;;;;;;1.27;0.50;;;19.00;50.70;;;;;;6214991;28;20454;-64
2023/10/15 00:28:16;;;;;;;2.65;0.40;;;18.80;50.60;;;;;;6214132;28;20103;-64
2023/10/15 00:31:17;;;;;;;3.08;0.50;;;19.00;50.80;;;;;;6215999;28;20139;-64
2023/10/15 00:34:18;;;;;;;0.95;0.40;;;18.90;50.70;;;;;;6216572;28;20022;-65
2023/10/15 00:37:22;;;;;;;3.70;0.30;;;18.90;50.60;;;;;;6214826;28;20501;-65
2023/10/15 00:40:24;;;;;;;2.08;0.52;;;18.90;50.60;;;;;;6215715;28;20735;-64
2023/10/15 00:43:25;;;;;;;3.28;0.45;;;18.90;50.50;;;;;;6215798;28;20041;-64
2023/10/15 00:46:37;;;;;;;1.67;0.60;;;18.90;50.60;;;;;;6215924;28;20088;-65
2023/10/15 00:49:38;;;;;;;0.20;0.20;;;18.90;50.70;;;;;;6215481;28;20435;-64
2023/10/15 00:52:42;;;;;;;0.77;0.38;;;18.90;50.80;;;;;;6215402;28;20298;-64
2023/10/15 00:55:43;;;;;;;2.13;0.80;;;18.90;50.80;;;;;;6213966;28;20124;-66
2023/10/15 01:01:54;;;;;;;3.72;0.80;;;18.80;50.60;;;;;;6194592;28;20141;-64
2023/10/15 01:05:00;;;;;;;0.82;0.57;;;18.80;50.60;;;;;;6189564;28;20144;-66
2023/10/15 01:08:04;;;;;;;1.88;0.63;;;18.80;50.50;;;;;;6191199;28;20042;-66
2023/10/15 01:11:15;;;;;;;2.70;0.88;;;18.70;50.50;;;;;;6197681;28;20037;-64
2023/10/15 01:14:26;;;;;;;0.85;0.43;;;18.70;50.70;;;;;;6215705;28;20038;-63
2023/10/15 01:17:36;;;;;;;0.63;0.35;;;18.70;50.80;;;;;;6213710;28;20481;-65
2023/10/15 01:20:44;;;;;;;1.40;0.50;;;18.70;50.80;;;;;;6197393;28;20034;-63
2023/10/15 01:23:59;;;;;;;3.00;0.50;;;18.70;50.80;;;;;;6208726;28;20038;-64
2023/10/15 01:30:17;;;;;;;3.35;0.65;;;18.60;50.80;;;;;;6188943;28;20038;-64
2023/10/15 01:33:17;;;;;;;2.85;0.73;;;18.60;50.80;;;;;;6190677;28;20167;-64
2023/10/15 01:36:27;;;;;;;2.35;0.88;;;18.60;50.90;;;;;;6207016;28;20432;-64
2023/10/15 01:39:40;;;;;;;3.10;0.63;;;18.60;51.00;;;;;;6213308;28;20095;-65
2023/10/15 01:42:41;;;;;;;2.50;0.80;;;18.50;51.00;;;;;;6215576;28;20344;-64
2023/10/15 01:45:47;;;;;;;0.75;0.47;;;18.40;51.00;;;;;;6197127;28;20029;-64
2023/10/15 01:48:49;;;;;;;1.75;0.70;;;18.40;51.10;;;;;;6212825;28;20123;-65
2023/10/15 01:51:53;;;;;;;0.93;0.43;;;18.30;51.20;;;;;;6214770;28;20095;-64
2023/10/15 01:54:54;;;;;;;1.58;0.68;;;18.30;51.30;;;;;;6213146;28;20030;-63
2023/10/15 01:58:00;;;;;;;3.25;0.93;;;18.30;51.40;;;;;;6213157;28;20090;-65
2023/10/15 02:01:31;;;;;;;0.50;0.38;;;18.30;51.40;;;;;;6213079;28;20038;-64
2023/10/15 02:04:41;;;;;;;0.32;0.28;;;18.30;51.60;;;;;;6214531;28;20805;-64
2023/10/15 02:07:44;;;;;;;1.92;0.75;;;18.20;51.50;;;;;;6214468;28;20065;-64
2023/10/15 02:10:48;;;;;;;5.30;1.02;;;18.20;51.70;;;;;;6214238;28;20517;-65
2023/10/15 02:13:50;;;;;;;1.25;0.55;;;18.70;52.00;;;;;;6214453;28;20064;-64
2023/10/15 02:16:51;;;;;;;1.85;0.70;;;18.10;51.80;;;;;;6214175;28;20084;-64
2023/10/15 02:19:55;;;;;;;7.18;1.10;;;18.10;51.90;;;;;;6208437;28;20542;-64
2023/10/15 02:22:57;;;;;;;2.13;0.47;;;18.10;51.90;;;;;;6188512;28;20440;-65
2023/10/15 02:25:59;;;;;;;3.55;0.90;;;18.10;52.10;;;;;;6188412;28;20031;-65
2023/10/15 02:35:39;;;;;;;8.40;0.90;;;18.00;52.30;;;;;;6188407;28;20490;-66
2023/10/15 02:38:52;;;;;;;3.55;0.73;;;18.00;52.40;;;;;;6189794;28;20118;-65
2023/10/15 02:41:53;;;;;;;1.38;0.85;;;17.90;52.40;;;;;;6192761;28;20553;-65
2023/10/15 02:44:54;;;;;;;2.28;0.52;;;17.90;52.60;;;;;;6194318;28;20026;-66
2023/10/15 02:47:55;;;;;;;4.60;0.63;;;17.80;52.70;;;;;;6193952;28;20562;-65
2023/10/15 02:51:07;;;;;;;3.13;0.55;;;17.80;52.70;;;;;;6216476;28;20038;-63
2023/10/15 02:57:29;;;;;;;2.88;0.55;;;17.70;52.90;;;;;;6216758;28;20040;-67
2023/10/15 03:00:34;;;;;;;2.13;0.52;;;17.70;52.90;;;;;;6216248;28;20144;-66
2023/10/15 03:03:35;;;;;;;6.90;0.80;;;17.70;52.90;;;;;;6217474;28;20183;-65
2023/10/15 03:06:41;;;;;;;3.58;0.82;;;17.70;52.90;;;;;;6216290;28;20041;-64
2023/10/15 03:09:43;;;;;;;5.45;0.73;;;17.60;52.90;;;;;;6215984;28;20399;-64
2023/10/15 03:12:44;;;;;;;3.88;0.80;;;17.60;53.00;;;;;;6215809;28;20449;-65
2023/10/15 03:15:52;;;;;;;2.05;0.77;;;17.60;53.10;;;;;;6216571;28;20124;-66
2023/10/15 03:18:56;;;;;;;;;;;17.50;53.40;;;;;;6192461;28;20113;-63
2023/10/15 03:21:59;;;;;;;2.83;0.73;;;17.40;53.40;;;;;;6191582;28;19914;-64
2023/10/15 03:24:59;;;;;;;6.97;0.73;;;17.50;53.50;;;;;;6192067;28;20065;-64
2023/10/15 03:28:00;;;;;;;0.40;0.40;;;17.40;53.60;;;;;;6202992;28;20713;-64
2023/10/15 03:31:01;;;;;;;3.75;0.50;;;17.30;53.70;;;;;;6217893;28;20678;-64
2023/10/15 03:37:05;;;;;;;3.55;0.93;;;17.30;54.00;;;;;;6218601;28;20034;-65
2023/10/15 03:40:13;;;;;;;0.40;0.35;;;17.20;54.00;;;;;;6217989;28;20116;-63
2023/10/15 03:43:20;;;;;;;2.15;1.00;;;17.20;54.00;;;;;;6217771;28;20021;-64
2023/10/15 03:46:24;;;;;;;2.60;0.88;;;17.20;54.00;;;;;;6215925;28;20143;-64
2023/10/15 03:49:27;;;;;;;3.50;0.55;;;17.20;54.10;;;;;;6215052;28;20026;-65
2023/10/15 03:52:28;;;;;;;2.75;0.90;;;17.20;54.10;;;;;;6215630;28;20467;-65
2023/10/15 03:55:58;;;;;;;3.05;1.13;;;17.20;54.10;;;;;;6217183;28;20550;-64
2023/10/15 03:59:26;;;;;;;5.65;0.73;;;17.20;54.10;;;;;;6216225;28;20045;-64
2023/10/15 04:03:01;;;;;;;2.25;0.75;;;17.20;54.10;;;;;;6193122;28;20042;-64
2023/10/15 04:06:27;;;;;;;2.97;1.08;;;17.20;54.10;;;;;;6192212;28;20042;-64
2023/10/15 04:09:53;;;;;;;1.85;0.90;;;17.20;53.80;;;;;;6192007;28;20042;-64
2023/10/15 04:13:20;;;;;;;3.10;1.38;;;17.20;53.70;;;;;;6203635;28;20116;-63
2023/10/15 04:16:46;;;;;;;2.90;0.70;;;17.60;53.80;;;;;;6216521;28;20343;-65
2023/10/15 04:19:48;;;;;;;1.17;0.85;;;17.20;53.60;;;;;;6215667;28;20494;-64
2023/10/15 04:23:21;;;;;;;2.47;0.80;;;17.20;53.60;;;;;;6215123;28;20037;-66
2023/10/15 04:26:50;;;;;;;6.00;1.02;;;17.30;53.60;;;;;;6216583;28;20700;-64
2023/10/15 04:30:16;;;;;;;2.73;1.00;;;17.20;53.40;;;;;;6216313;28;20038;-65
2023/10/15 04:33:43;;;;;;;1.25;0.52;;;17.30;53.30;;;;;;6216963;28;20038;-63
2023/10/15 04:36:48;;;;;;;7.60;0.95;;;17.30;53.30;;;;;;6216224;28;20188;-65
2023/10/15 04:40:11;;;;;;;4.45;1.05;;;17.30;53.10;;;;;;6215950;28;20041;-64
2023/10/15 04:43:17;;;;;;;7.88;1.05;;;17.40;53.10;;;;;;6215703;28;20111;-64
2023/10/15 04:46:43;;;;;;;2.90;0.70;;;17.30;53.00;;;;;;6216003;28;20037;-64
2023/10/15 04:49:47;;;;;;;1.02;0.82;;;17.30;53.00;;;;;;6215257;28;20105;-64
2023/10/15 04:53:14;;;;;;;4.88;0.90;;;17.30;53.00;;;;;;6214875;28;20038;-64
2023/10/15 04:56:42;;;;;;;1.05;0.65;;;17.20;52.90;;;;;;6216157;28;20049;-64
2023/10/15 04:59:43;;;;;;;5.57;1.45;;;17.30;52.90;;;;;;6212388;28;20026;-65
2023/10/15 05:03:09;;;;;;;1.52;0.82;;;17.20;52.80;;;;;;6190781;28;20619;-65
2023/10/15 05:06:12;;;;;;;3.05;0.90;;;17.30;52.70;;;;;;6190864;28;20049;-65
2023/10/15 05:09:40;;;;;;;1.58;0.90;;;17.20;52.70;;;;;;6190929;28;20418;-65
2023/10/15 05:13:06;;;;;;;2.67;1.25;;;17.30;52.70;;;;;;6214098;28;20042;-64
2023/10/15 05:16:10;;;;;;;2.00;0.70;;;17.20;52.60;;;;;;6216092;28;20379;-65
2023/10/15 05:19:37;;;;;;;2.47;1.00;;;17.10;52.70;;;;;;6213871;28;20121;-64
2023/10/15 05:23:03;;;;;;;7.05;1.10;;;17.20;52.90;;;;;;6191150;28;20042;-64
2023/10/15 05:26:30;;;;;;;7.93;1.05;;;17.10;52.90;;;;;;6190674;28;20049;-64
2023/10/15 05:29:31;;;;;;;2.53;1.30;;;17.20;53.10;;;;;;6172526;28;20053;-64
2023/10/15 05:32:34;;;;;;;2.47;1.38;;;17.10;53.00;;;;;;6190251;28;20742;-64
2023/10/15 05:35:37;;;;;;;3.17;1.40;;;17.10;53.10;;;;;;6190531;28;20033;-64
2023/10/15 05:39:04;;;;;;;2.78;1.20;;;17.10;53.20;;;;;;6190395;28;20030;-64
2023/10/15 05:42:30;;;;;;;3.22;1.50;;;17.00;53.30;;;;;;6190775;28;20038;-64
2023/10/15 05:45:31;;;;;;;6.78;1.45;;;17.00;53.50;;;;;;6189086;28;20061;-64
2023/10/15 05:48:32;;;;;;;3.28;1.77;;;17.00;53.60;;;;;;6190061;28;20117;-64
2023/10/15 05:51:33;;;;;;;4.95;1.30;;;17.00;53.60;;;;;;6190020;28;20034;-65
2023/10/15 05:55:00;;;;;;;4.82;1.33;;;16.90;53.80;;;;;;6190402;28;20042;-64
2023/10/15 05:58:27;;;;;;;6.75;1.67;;;16.90;54.00;;;;;;6189018;28;20066;-65
2023/10/15 06:01:55;;;;;;;4.10;1.48;;;16.90;54.10;;;;;;6190401;28;20038;-66
2023/10/15 06:05:00;;;;;;;2.55;1.27;;;16.90;54.00;;;;;;6172644;28;20069;-64
2023/10/15 06:08:26;;;;;;;4.10;1.25;;;16.90;54.00;;;;;;6190657;28;20046;-64
2023/10/15 06:11:52;;;;;;;4.03;1.20;;;16.90;54.10;;;;;;6203581;28;20050;-64
2023/10/15 06:14:52;;;;;;;3.17;1.50;;;16.90;54.10;;;;;;6216985;28;20053;-65
2023/10/15 06:18:19;;;;;;;4.03;1.45;;;16.90;54.10;;;;;;6218249;28;20113;-66
2023/10/15 06:21:44;;;;;;;3.22;1.48;;;16.90;54.10;;;;;;6194016;28;20545;-64
2023/10/15 06:25:12;;;;;;;5.30;1.85;;;16.90;54.10;;;;;;6194920;28;20050;-66
2023/10/15 06:28:16;;;;;;;6.88;1.60;;;16.90;54.10;;;;;;6194584;28;20224;-63
2023/10/15 06:31:17;;;;;;;5.50;1.65;;;16.90;54.10;;;;;;6194500;28;20061;-64
2023/10/15 06:34:18;;;;;;;4.57;1.90;;;16.90;54.10;;;;;;6195137;28;20084;-64
2023/10/15 06:37:19;;;;;;;3.05;1.70;;;16.80;54.30;;;;;;6195040;28;20142;-66
2023/10/15 06:40:46;;;;;;;11.95;1.90;;;16.80;54.40;;;;;;6194487;28;20042;-64
2023/10/15 06:43:50;;;;;;;3.35;1.45;;;16.80;54.60;;;;;;6194496;28;20038;-64
2023/10/15 06:46:51;;;;;;;7.63;1.65;;;16.80;54.60;;;;;;6209369;28;20100;-64
2023/10/15 06:50:19;;;;;;;3.55;1.48;;;16.80;54.60;;;;;;6212081;28;20152;-64
2023/10/15 06:53:45;;;;;;;7.75;1.90;;;16.90;54.70;;;;;;6217587;28;20042;-65
2023/10/15 06:57:11;;;;;;;2.00;1.35;;;16.90;54.60;;;;;;6218629;28;20812;-66
2023/10/15 07:00:37;;;;;;;3.42;1.50;;;16.90;54.60;;;;;;6219064;28;20569;-66
2023/10/15 07:04:06;;;;;;;2.55;1.73;;;16.90;54.60;;;;;;6221521;28;20062;-65
2023/10/15 07:07:07;;;;;;;4.15;1.98;;;16.90;54.60;;;;;;6219374;28;20104;-65
2023/10/15 07:10:33;;;;;;;4.40;1.75;;;17.00;54.70;;;;;;6217966;28;20042;-63
2023/10/15 07:13:59;;;;;;;3.22;2.05;;;16.90;54.60;;;;;;6218659;28;20108;-65
2023/10/15 07:17:00;;;;;;;7.00;1.50;;;17.00;54.60;;;;;;6218162;28;20508;-65
2023/10/15 07:20:01;;;;;;;3.72;1.80;;;17.00;54.50;;;;;;6216453;28;20034;-65
2023/10/15 07:23:02;;;;;;;3.90;1.98;;;17.10;54.40;;;;;;6218213;28;20030;-65
2023/10/15 07:26:28;;;;;;;6.65;2.20;;;17.10;54.30;;;;;;6217045;28;20459;-66
2023/10/15 07:29:54;;;;;;;6.32;2.15;;;17.20;54.20;;;;;;6218205;28;20462;-63
2023/10/15 07:32:57;;;;;;;7.28;1.77;;;17.20;54.10;;;;;;6217782;28;20060;-65
2023/10/15 07:36:01;;;;;;;5.65;1.92;;;17.30;54.00;;;;;;6216357;28;20142;-66
2023/10/15 07:39:27;;;;;;;3.90;1.87;;;17.30;53.90;;;;;;6217358;28;20479;-65
2023/10/15 07:43:00;;;;;;;5.72;1.83;;;17.40;53.70;;;;;;6217645;28;20147;-65
2023/10/15 07:46:26;;;;;;;3.38;1.95;;;17.40;53.50;;;;;;6217655;28;20451;-65
2023/10/15 07:49:52;;;;;;;6.10;2.03;;;17.50;53.30;;;;;;6216635;28;20046;-66
2023/10/15 07:52:54;;;;;;;7.05;1.52;;;17.60;53.10;;;;;;6217595;28;20139;-64
2023/10/15 07:56:21;;;;;;;10.10;1.83;;;17.60;52.80;;;;;;6217977;28;20052;-64
2023/10/15 07:59:47;;;;;;;2.92;1.92;;;17.70;52.70;;;;;;6193601;28;20435;-65
2023/10/15 08:03:13;;;;;;;5.60;1.77;;;17.70;52.70;;;;;;6193323;28;20126;-65
2023/10/15 08:06:40;;;;;;;4.20;2.15;;;17.70;52.70;;;;;;6193103;28;20066;-65
2023/10/15 08:09:44;;;;;;;4.65;1.55;;;17.80;52.50;;;;;;6205206;28;20041;-65
2023/10/15 08:12:45;;;;;;;4.70;1.77;;;17.80;52.40;;;;;;6217555;28;20033;-66
2023/10/15 08:15:46;;;;;;;2.13;1.50;;;17.80;52.50;;;;;;6217096;28;20029;-65
2023/10/15 08:19:12;;;;;;;7.15;1.65;;;17.80;52.50;;;;;;6217314;28;20465;-64
2023/10/15 08:22:40;;;;;;;2.47;1.65;;;17.80;52.30;;;;;;6216053;28;20158;-65
2023/10/15 08:26:06;;;;;;;6.80;2.10;;;17.80;52.00;;;;;;6217016;28;20768;-66
2023/10/15 08:29:09;;;;;;;4.53;1.90;;;17.80;51.80;;;;;;6215959;28;20040;-66
2023/10/15 08:32:20;;;;;;;9.48;2.13;;;17.90;51.90;;;;;;6216876;28;20045;-64
2023/10/15 08:35:24;;;;;;;2.30;1.50;;;17.90;51.90;;;;;;6215515;28;20033;-64
2023/10/15 08:38:50;;;;;;;5.18;2.05;;;17.90;51.90;;;;;;6215708;28;20038;-64
2023/10/15 08:41:57;;;;;;;5.70;1.85;;;18.10;51.80;;;;;;6216536;28;20084;-65
2023/10/15 08:45:07;;;;;;;8.48;1.70;;;18.20;51.50;;;;;;6214776;28;20115;-65
2023/10/15 08:48:11;;;;;;;4.10;1.95;;;18.40;51.30;;;;;;6216988;28;20042;-64
2023/10/15 08:51:37;;;;;;;14.30;2.10;;;18.40;51.10;;;;;;6216678;28;20424;-65
2023/10/15 08:55:06;;;;;;;1.88;1.33;;;18.50;50.60;;;;;;6201122;28;20038;-65
2023/10/15 08:58:09;;;;;;;3.50;1.40;;;18.60;50.30;;;;;;6189489;28;20034;-64
2023/10/15 09:01:13;;;;;;;5.72;1.60;;;18.70;50.10;;;;;;6189713;28;20115;-64
2023/10/15 09:04:15;;;;;;;7.00;1.55;;;18.80;49.80;;;;;;6191362;28;20038;-66
2023/10/15 09:07:17;;;;;;;3.95;1.15;;;18.90;49.30;;;;;;6214711;28;20445;-66
2023/10/15 09:10:43;;;;;;;2.53;1.25;;;19.00;49.00;;;;;;6214813;28;20034;-65
2023/10/15 09:13:50;;;;;;;4.93;1.20;;;19.20;48.60;;;;;;6215286;28;20541;-65
2023/10/15 09:17:18;;;;;;;3.13;1.40;;;19.30;48.10;;;;;;6215364;28;20034;-66
2023/10/15 09:20:26;;;;;;;4.22;1.17;;;19.50;47.60;;;;;;6214817;28;20029;-64
2023/10/15 09:23:52;;;;;;;2.25;0.85;;;19.70;47.20;;;;;;6215553;28;20037;-65
2023/10/15 09:26:57;;;;;;;1.85;1.00;;;19.80;46.70;;;;;;6215457;28;20096;-65
2023/10/15 09:30:24;;;;;;;3.88;1.10;;;20.00;46.20;;;;;;6214924;28;20037;-66
2023/10/15 09:33:29;;;;;;;2.95;0.80;;;20.00;45.90;;;;;;6214850;28;20375;-66
2023/10/15 09:36:55;;;;;;;2.97;0.90;;;20.20;45.60;;;;;;6214025;28;20069;-65
2023/10/15 09:39:57;;;;;;;1.60;0.82;;;20.40;44.90;;;;;;6214187;28;20083;-66
2023/10/15 09:42:59;;;;;;;5.10;1.20;;;20.50;44.00;;;;;;6215800;28;20083;-65
2023/10/15 09:46:00;;;;;;;2.90;0.90;;;20.70;43.40;;;;;;6212993;28;20061;-64
2023/10/15 09:49:04;;;;;;;3.08;0.70;;;20.70;42.90;;;;;;6214180;28;20044;-64
2023/10/15 09:52:10;;;;;;;1.88;0.70;;;20.80;42.80;;;;;;6214581;28;20041;-65
2023/10/15 09:55:14;;;;;;;3.33;0.68;;;20.90;42.80;;;;;;6214535;28;20040;-65
2023/10/15 09:58:16;;;;;;;4.18;1.25;;;20.90;42.20;;;;;;6214551;28;20793;-66
2023/10/15 10:01:28;;;;;;;5.70;1.38;;;20.90;42.10;;;;;;6203627;28;20133;-64
2023/10/15 10:05:00;;;;;;;6.03;1.30;;;20.80;42.20;;;;;;6212954;28;20044;-64
2023/10/15 10:08:56;;;;;;;2.35;0.77;;;20.70;42.20;;;;;;6214551;28;20049;-64
2023/10/15 10:12:32;;;;;;;2.35;0.98;;;20.60;41.20;;;;;;6213990;28;20042;-66
2023/10/15 10:15:57;;;;;;;2.15;1.02;;;20.60;41.70;;;;;;6214455;28;20030;-65
2023/10/15 10:19:02;;;;;;;1.80;0.68;;;20.40;41.80;;;;;;6196469;28;20030;-64
2023/10/15 10:22:29;;;;;;;4.30;0.93;;;20.30;41.90;;;;;;6214615;28;20447;-65
2023/10/15 10:25:31;;;;;;;1.08;0.50;;;20.20;42.00;;;;;;6214402;28;20034;-65
2023/10/15 10:29:23;;;;;;;3.17;0.70;;;20.10;42.10;;;;;;6214681;28;20486;-65
2023/10/15 10:32:24;;;;;;;2.13;0.70;;;20.00;42.10;;;;;;6214689;28;20036;-64
2023/10/15 10:35:50;;;;;;;1.30;0.70;;;20.00;42.00;;;;;;6218255;28;20046;-65
2023/10/15 10:39:07;;;;;;;5.85;1.00;;;20.00;42.00;;;;;;6214937;28;20406;-65
2023/10/15 10:42:21;;;;;;;2.75;1.45;;;20.00;42.00;;;;;;6212769;28;20109;-67
2023/10/15 10:45:53;;;;;;;2.08;0.85;;;20.20;42.10;;;;;;6214033;28;20038;-65
2023/10/15 10:49:05;;;;;;;5.15;0.90;;;20.30;41.90;;;;;;6196468;28;20026;-64
2023/10/15 10:52:15;;;;;;;3.78;0.80;;;20.50;41.70;;;;;;6214484;28;20453;-65
2023/10/15 10:55:31;;;;;;;4.05;1.00;;;20.70;41.50;;;;;;6215533;28;20053;-65
2023/10/15 10:58:34;;;;;;;3.63;0.98;;;20.80;41.60;;;;;;6200962;28;20078;-64
2023/10/15 11:01:40;;;;;;;1.73;0.77;;;21.10;41.20;;;;;;6209877;28;20513;-64
2023/10/15 11:04:45;;;;;;;4.45;1.20;;;21.50;40.60;;;;;;6218739;28;20061;-64
2023/10/15 11:07:47;;;;;;;2.17;0.65;;;21.90;39.80;;;;;;6218407;28;20065;-64
2023/10/15 11:11:14;;;;;;;5.07;1.35;;;22.30;38.70;;;;;;6210381;28;20046;-64
2023/10/15 11:14:16;;;;;;;2.28;0.98;;;22.70;38.20;;;;;;6194420;28;20113;-65
2023/10/15 11:17:21;;;;;;;4.53;1.17;;;23.10;37.10;;;;;;6194025;28;20044;-64
2023/10/15 11:20:50;;;;;;;1.92;0.85;;;23.00;36.50;;;;;;6193920;28;20054;-64
2023/10/15 11:24:16;;;;;;;2.22;0.82;;;22.70;36.90;;;;;;6192774;28;20147;-64
2023/10/15 11:27:19;;;;;;;4.10;1.05;;;22.40;37.20;;;;;;6193423;28;20125;-64
2023/10/15 11:30:23;;;;;;;3.53;1.10;;;22.40;37.30;;;;;;6192546;28;20054;-64
2023/10/15 11:33:25;;;;;;;3.55;0.88;;;22.30;37.30;;;;;;6192984;28;20026;-65
2023/10/15 11:36:34;;;;;;;5.18;0.90;;;22.10;37.30;;;;;;6193067;28;20057;-65
2023/10/15 11:39:38;;;;;;;6.40;1.10;;;21.80;37.60;;;;;;6192626;28;20059;-65
2023/10/15 11:42:54;;;;;;;1.48;0.60;;;21.60;37.60;;;;;;6192798;28;20056;-65
2023/10/15 11:45:56;;;;;;;3.25;0.60;;;21.40;37.90;;;;;;6193025;28;20436;-66
2023/10/15 11:49:24;;;;;;;7.15;2.28;;;21.30;38.10;;;;;;6189703;28;20038;-65
2023/10/15 11:52:28;;;;;;;3.03;0.90;;;21.10;38.30;;;;;;6217126;28;20371;-64
2023/10/15 11:55:31;;;;;;;3.45;0.70;;;21.20;38.30;;;;;;6197533;28;20034;-66
2023/10/15 11:58:58;;;;;;;2.50;0.70;;;21.10;38.10;;;;;;6193325;28;20034;-65
2023/10/15 12:02:25;;;;;;;4.00;0.80;;;21.00;38.40;;;;;;6193414;28;20600;-65
2023/10/15 12:05:51;;;;;;;1.73;0.55;;;20.90;38.60;;;;;;6191813;28;20046;-65
2023/10/15 12:09:24;;;;;;;2.70;0.90;;;21.00;38.70;;;;;;6192966;28;20061;-65
2023/10/15 12:12:50;;;;;;;0.30;0.30;;;20.90;38.50;;;;;;6213409;28;20121;-65
2023/10/15 12:15:51;;;;;;;6.68;0.82;;;20.80;38.40;;;;;;6216724;28;20480;-65
2023/10/15 12:18:52;;;;;;;4.60;0.68;;;20.80;38.60;;;;;;6215118;28;20499;-64
2023/10/15 12:21:53;;;;;;;3.08;0.82;;;21.10;38.60;;;;;;6218168;28;20025;-65
2023/10/15 12:25:19;;;;;;;0.45;0.35;;;22.00;37.50;;;;;;6217679;28;20081;-65
2023/10/15 12:28:47;;;;;;;1.50;0.75;;;22.70;36.40;;;;;;6216401;28;20442;-66
2023/10/15 12:32:13;;;;;;;4.22;0.52;;;22.80;35.90;;;;;;6216062;28;20038;-66
2023/10/15 12:35:16;;;;;;;1.40;0.73;;;22.60;35.80;;;;;;6214722;28;20437;-66
2023/10/15 12:38:26;;;;;;;3.53;0.77;;;22.40;36.00;;;;;;6216048;28;20500;-65
2023/10/15 12:41:27;;;;;;;2.58;0.75;;;22.20;36.10;;;;;;6214527;28;20034;-65
2023/10/15 12:44:31;;;;;;;3.00;1.05;;;22.00;36.30;;;;;;6198138;28;20060;-64
2023/10/15 12:47:32;;;;;;;1.10;0.65;;;21.80;36.50;;;;;;6215922;28;20033;-64
2023/10/15 12:50:35;;;;;;;3.05;0.60;;;21.70;36.50;;;;;;6205422;28;20038;-63
2023/10/15 12:53:39;;;;;;;2.05;0.50;;;21.60;36.70;;;;;;6190335;28;20105;-65
2023/10/15 12:56:40;;;;;;;0.90;0.50;;;21.50;36.90;;;;;;6191545;28;20038;-67
2023/10/15 12:59:41;;;;;;;3.08;0.57;;;21.40;36.90;;;;;;6191240;28;20390;-64
2023/10/15 13:02:43;;;;;;;1.98;0.68;;;21.40;37.00;;;;;;6191156;28;20033;-65
2023/10/15 13:06:09;;;;;;;1.60;0.75;;;21.40;37.00;;;;;;6191399;28;20038;-64
2023/10/15 13:09:19;;;;;;;1.33;0.50;;;21.40;36.80;;;;;;6189933;28;20096;-66
2023/10/15 13:12:20;;;;;;;3.08;0.88;;;21.30;36.90;;;;;;6206059;28;20030;-64
2023/10/15 13:15:47;;;;;;;2.63;0.90;;;21.30;37.10;;;;;;6216000;28;20478;-65
2023/10/15 13:18:52;;;;;;;1.88;0.40;;;21.20;37.30;;;;;;6215298;28;20375;-65
2023/10/15 13:21:55;;;;;;;2.85;0.80;;;21.10;37.40;;;;;;6215414;28;20029;-64
2023/10/15 13:24:56;;;;;;;4.22;0.80;;;21.00;37.60;;;;;;6214673;28;20037;-64
2023/10/15 13:27:59;;;;;;;3.72;0.60;;;21.00;37.80;;;;;;6215628;28;20077;-67
2023/10/15 13:31:25;;;;;;;1.75;0.75;;;21.00;38.10;;;;;;6215564;28;20034;-67
2023/10/15 13:34:30;;;;;;;0.85;0.40;;;21.00;38.10;;;;;;6214741;28;20022;-64
2023/10/15 13:37:30;;;;;;;2.50;0.65;;;20.90;38.00;;;;;;6190983;28;20113;-65
2023/10/15 13:40:33;;;;;;;2.88;0.65;;;21.20;38.10;;;;;;6190489;28;20112;-63
2023/10/15 13:43:35;;;;;;;2.63;0.65;;;20.90;37.80;;;;;;6190444;28;20042;-65
2023/10/15 13:46:36;;;;;;;5.00;0.77;;;21.00;37.80;;;;;;6191226;28;20462;-64
2023/10/15 13:49:39;;;;;;;0.35;0.35;;;20.90;37.80;;;;;;6213270;28;20482;-64
2023/10/15 13:52:46;;;;;;;10.30;0.50;;;21.00;37.90;;;;;;6214859;28;20026;-66
2023/10/15 13:55:47;;;;;;;1.73;0.73;;;20.90;38.60;;;;;;6214879;28;20144;-66
2023/10/15 13:58:50;;;;;;;2.58;0.70;;;20.90;38.00;;;;;;6214267;28;20026;-64
2023/10/15 14:01:53;;;;;;;4.13;1.00;;;20.90;38.20;;;;;;6193969;28;20034;-65
2023/10/15 14:04:54;;;;;;;1.88;0.68;;;20.80;38.20;;;;;;6188879;28;20031;-65
2023/10/15 14:07:57;;;;;;;1.25;0.47;;;20.80;38.30;;;;;;6189590;28;20399;-65
2023/10/15 14:10:58;;;;;;;1.25;0.35;;;20.80;38.40;;;;;;6195099;28;20113;-65
2023/10/15 14:14:05;;;;;;;1.08;0.50;;;20.80;38.60;;;;;;6215068;28;20064;-66
2023/10/15 14:17:14;;;;;;;2.90;0.75;;;20.80;38.60;;;;;;6215053;28;20026;-64
2023/10/15 14:20:24;;;;;;;3.80;0.60;;;20.90;38.50;;;;;;6214341;28;20113;-64
2023/10/15 14:23:32;;;;;;;4.38;0.47;;;20.90;38.60;;;;;;6212833;28;20036;-66
2023/10/15 14:26:37;;;;;;;2.85;0.77;;;20.90;38.60;;;;;;6214625;28;20049;-63
2023/10/15 14:29:42;;;;;;;0.75;0.50;;;20.90;38.60;;;;;;6214140;28;20034;-63
2023/10/15 14:32:44;;;;;;;0.50;0.40;;;21.10;38.50;;;;;;6214605;28;20148;-65
2023/10/15 14:35:48;;;;;;;1.67;0.52;;;21.10;38.30;;;;;;6215850;28;20026;-65
2023/10/15 14:38:52;;;;;;;1.50;0.47;;;21.20;38.30;;;;;;6219393;28;20084;-64
2023/10/15 14:41:56;;;;;;;1.20;0.50;;;21.10;38.30;;;;;;6221072;28;20034;-64
2023/10/15 14:44:57;;;;;;;3.83;0.73;;;21.10;38.40;;;;;;6219931;28;20034;-65
2023/10/15 14:47:59;;;;;;;8.38;0.70;;;21.20;38.40;;;;;;6217701;28;20107;-64
2023/10/15 14:51:25;;;;;;;7.32;0.40;;;21.20;38.30;;;;;;6194500;28;20034;-66
2023/10/15 14:54:26;;;;;;;1.35;0.60;;;21.20;38.20;;;;;;6192977;28;20093;-66
2023/10/15 14:57:29;;;;;;;4.78;0.98;;;21.20;38.30;;;;;;6194199;28;20464;-65
2023/10/15 15:00:29;;;;;;;1.35;0.45;;;21.10;38.20;;;;;;6201409;28;20060;-65
2023/10/15 15:03:32;;;;;;;3.33;0.68;;;21.10;38.30;;;;;;6218423;28;20030;-64
2023/10/15 15:06:58;;;;;;;1.38;0.90;;;21.00;38.30;;;;;;6217529;28;20041;-65
2023/10/15 15:09:59;;;;;;;2.88;0.77;;;20.90;38.50;;;;;;6218082;28;20045;-64
2023/10/15 15:13:25;;;;;;;4.85;0.68;;;20.80;38.70;;;;;;6217240;28;20053;-65
2023/10/15 15:16:51;;;;;;;4.97;0.77;;;20.70;38.90;;;;;;6218247;28;20395;-65
2023/10/15 15:20:17;;;;;;;1.10;0.70;;;20.60;39.00;;;;;;6217918;28;20395;-66
2023/10/15 15:23:43;;;;;;;1.95;0.50;;;20.60;39.20;;;;;;6218265;28;20037;-65
2023/10/15 15:27:11;;;;;;;0.68;0.60;;;20.60;39.30;;;;;;6218060;28;20475;-65
2023/10/15 15:30:12;;;;;;;1.13;0.32;;;20.60;39.30;;;;;;6217408;28;20068;-66
2023/10/15 15:33:38;;;;;;;0.55;0.55;;;20.50;39.40;;;;;;6218532;28;20743;-64
2023/10/15 15:37:04;;;;;;;1.15;0.30;;;20.40;39.50;;;;;;6217969;28;20106;-65
2023/10/15 15:40:07;;;;;;;2.55;0.77;;;20.40;39.60;;;;;;6217237;28;20025;-64
2023/10/15 15:43:34;;;;;;;3.47;0.50;;;20.30;39.60;;;;;;6193492;28;20680;-65
2023/10/15 15:46:37;;;;;;;1.50;0.50;;;20.30;39.60;;;;;;6190928;28;20046;-63
2023/10/15 15:49:40;;;;;;;1.30;0.50;;;20.20;39.70;;;;;;6216030;28;20038;-64
2023/10/15 15:52:43;;;;;;;1.23;0.50;;;20.20;39.80;;;;;;6216526;28;20046;-64
2023/10/15 15:55:44;;;;;;;1.90;0.30;;;20.10;39.80;;;;;;6218675;28;20076;-64
2023/10/15 15:58:45;;;;;;;0.88;0.50;;;20.10;39.70;;;;;;6218105;28;20029;-64
2023/10/15 16:01:46;;;;;;;4.53;0.50;;;20.10;39.70;;;;;;6217015;28;20049;-65
2023/10/15 16:04:47;;;;;;;1.58;0.55;;;20.00;39.50;;;;;;6217155;28;20037;-65
2023/10/15 16:07:49;;;;;;;1.25;0.40;;;20.00;39.50;;;;;;6216956;28;20035;-65
2023/10/15 16:10:50;;;;;;;3.63;0.45;;;19.90;39.50;;;;;;6215977;28;20038;-64
2023/10/15 16:13:52;;;;;;;3.47;0.60;;;19.90;39.60;;;;;;6215061;28;20041;-64
2023/10/15 16:16:53;;;;;;;2.35;0.40;;;19.80;39.60;;;;;;6216742;28;20199;-65
2023/10/15 16:19:57;;;;;;;0.80;0.47;;;19.80;39.70;;;;;;6216340;28;20045;-65
2023/10/15 16:23:01;;;;;;;3.10;0.85;;;19.70;39.90;;;;;;6216787;28;20123;-65
2023/10/15 16:26:02;;;;;;;1.75;0.43;;;19.60;40.10;;;;;;6216600;28;20036;-66
2023/10/15 16:29:04;;;;;;;1.40;0.50;;;19.50;40.20;;;;;;6216427;28;20037;-65
2023/10/15 16:32:05;;;;;;;1.10;0.45;;;19.50;40.50;;;;;;6216179;28;20508;-66
2023/10/15 16:35:12;;;;;;;1.40;0.40;;;19.40;40.60;;;;;;6216304;28;20042;-64
2023/10/15 16:38:13;;;;;;;0.77;0.38;;;18.90;40.60;;;;;;6216329;28;20053;-64
2023/10/15 16:41:39;;;;;;;1.00;0.47;;;19.20;40.80;;;;;;6216166;28;20165;-66
2023/10/15 16:44:43;;;;;;;2.10;0.68;;;19.10;41.40;;;;;;6215862;28;20473;-67
2023/10/15 16:47:44;;;;;;;3.05;0.60;;;19.10;40.90;;;;;;6215631;28;20084;-64
2023/10/15 16:50:49;;;;;;;1.33;0.50;;;19.10;41.00;;;;;;6215208;28;20034;-65
2023/10/15 16:54:17;;;;;;;7.22;0.70;;;19.00;41.10;;;;;;6216071;28;20083;-65